sensor_id;sensor_type;location;lat;lon;timestamp;pressure;altitude;pressure_sealevel;temperature;humidity
43436;BME280;36399;51.444;-2.018;2022-07-31T00:00:44;100592.81;;;18.06;100.00
43436;BME280;36399;51.444;-2.018;2022-07-31T00:03:10;100591.09;;;18.02;100.00
43436;BME280;36399;51.444;-2.018;2022-07-31T00:05:37;100594.56;;;18.07;100.00
43436;BME280;36399;51.444;-2.018;2022-07-31T00:08:03;100583.97;;;18.04;100.00
43436;BME280;36399;51.444;-2.018;2022-07-31T00:10:29;100599.97;;;18.01;100.00
43436;BME280;36399;51.444;-2.018;2022-07-31T00:12:55;100612.44;;;17.96;100.00
43436;BME280;36399;51.444;-2.018;2022-07-31T00:15:21;100603.56;;;17.97;100.00
43436;BME280;36399;51.444;-2.018;2022-07-31T00:17:51;100602.75;;;17.93;100.00
43436;BME280;36399;51.444;-2.018;2022-07-31T00:20:17;100595.56;;;18.00;100.00
43436;BME280;36399;51.444;-2.018;2022-07-31T00:22:45;100588.53;;;17.96;100.00
43436;BME280;36399;51.444;-2.018;2022-07-31T00:25:13;100589.47;;;17.93;100.00
43436;BME280;36399;51.444;-2.018;2022-07-31T00:27:40;100592.97;;;17.95;100.00
43436;BME280;36399;51.444;-2.018;2022-07-31T00:30:08;100594.94;;;17.83;100.00
43436;BME280;36399;51.444;-2.018;2022-07-31T00:32:34;100597.56;;;17.86;100.00
43436;BME280;36399;51.444;-2.018;2022-07-31T00:35:00;100601.09;;;17.85;100.00
43436;BME280;36399;51.444;-2.018;2022-07-31T00:37:26;100594.84;;;17.89;100.00
43436;BME280;36399;51.444;-2.018;2022-07-31T00:39:52;100607.28;;;17.87;100.00
43436;BME280;36399;51.444;-2.018;2022-07-31T00:42:20;100594.94;;;17.83;100.00
43436;BME280;36399;51.444;-2.018;2022-07-31T00:44:48;100593.16;;;17.85;100.00
43436;BME280;36399;51.444;-2.018;2022-07-31T00:47:14;100596.69;;;17.84;100.00
43436;BME280;36399;51.444;-2.018;2022-07-31T00:49:40;100586.06;;;17.84;100.00
43436;BME280;36399;51.444;-2.018;2022-07-31T00:52:07;100586.97;;;17.84;100.00
43436;BME280;36399;51.444;-2.018;2022-07-31T00:54:33;100584.34;;;17.81;100.00
43436;BME280;36399;51.444;-2.018;2022-07-31T00:57:00;100582.53;;;17.85;100.00
43436;BME280;36399;51.444;-2.018;2022-07-31T00:59:27;100582.44;;;17.89;100.00
43436;BME280;36399;51.444;-2.018;2022-07-31T01:01:54;100584.31;;;17.83;100.00
43436;BME280;36399;51.444;-2.018;2022-07-31T01:04:20;100573.78;;;17.77;100.00
43436;BME280;36399;51.444;-2.018;2022-07-31T01:06:46;100579.00;;;17.83;100.00
43436;BME280;36399;51.444;-2.018;2022-07-31T01:09:12;100570.19;;;17.81;100.00
43436;BME280;36399;51.444;-2.018;2022-07-31T01:11:56;100571.13;;;17.78;100.00
43436;BME280;36399;51.444;-2.018;2022-07-31T01:14:27;100568.34;;;17.86;100.00
43436;BME280;36399;51.444;-2.018;2022-07-31T01:16:55;100575.44;;;17.84;100.00
43436;BME280;36399;51.444;-2.018;2022-07-31T01:19:28;100568.25;;;17.92;100.00
43436;BME280;36399;51.444;-2.018;2022-07-31T01:30:25;100573.47;;;17.98;100.00
43436;BME280;36399;51.444;-2.018;2022-07-31T01:32:55;100570.84;;;17.95;100.00
43436;BME280;36399;51.444;-2.018;2022-07-31T01:35:26;100571.72;;;17.95;100.00
43436;BME280;36399;51.444;-2.018;2022-07-31T01:38:01;100571.59;;;18.03;100.00
43436;BME280;36399;51.444;-2.018;2022-07-31T01:40:33;100566.38;;;17.97;100.00
43436;BME280;36399;51.444;-2.018;2022-07-31T01:43:05;100555.75;;;17.97;100.00
43436;BME280;36399;51.444;-2.018;2022-07-31T01:45:33;100558.38;;;18.00;100.00
43436;BME280;36399;51.444;-2.018;2022-07-31T01:48:02;100553.97;;;17.99;100.00
43436;BME280;36399;51.444;-2.018;2022-07-31T01:50:30;100550.38;;;18.02;100.00
43436;BME280;36399;51.444;-2.018;2022-07-31T01:52:57;100535.16;;;18.11;100.00
43436;BME280;36399;51.444;-2.018;2022-07-31T01:55:26;100544.09;;;18.06;100.00
43436;BME280;36399;51.444;-2.018;2022-07-31T01:57:54;100545.00;;;18.06;100.00
43436;BME280;36399;51.444;-2.018;2022-07-31T02:00:21;100541.34;;;18.12;100.00
43436;BME280;36399;51.444;-2.018;2022-07-31T02:02:48;100534.25;;;18.12;100.00
43436;BME280;36399;51.444;-2.018;2022-07-31T02:05:16;100539.56;;;18.12;100.00
43436;BME280;36399;51.444;-2.018;2022-07-31T02:07:44;100525.50;;;18.07;100.00
43436;BME280;36399;51.444;-2.018;2022-07-31T02:10:13;100527.13;;;18.14;100.00
43436;BME280;36399;51.444;-2.018;2022-07-31T02:12:40;100517.53;;;18.06;100.00
43436;BME280;36399;51.444;-2.018;2022-07-31T02:15:13;100531.69;;;18.06;100.00
43436;BME280;36399;51.444;-2.018;2022-07-31T02:17:43;100529.03;;;18.06;100.00
43436;BME280;36399;51.444;-2.018;2022-07-31T02:20:10;100540.53;;;18.08;100.00
43436;BME280;36399;51.444;-2.018;2022-07-31T02:22:37;100542.19;;;18.14;100.00
43436;BME280;36399;51.444;-2.018;2022-07-31T02:25:05;100546.75;;;18.07;100.00
43436;BME280;36399;51.444;-2.018;2022-07-31T02:27:32;100543.22;;;18.05;100.00
43436;BME280;36399;51.444;-2.018;2022-07-31T02:30:01;100534.31;;;18.09;100.00
43436;BME280;36399;51.444;-2.018;2022-07-31T02:32:29;100531.56;;;18.14;100.00
43436;BME280;36399;51.444;-2.018;2022-07-31T02:34:57;100536.06;;;18.10;100.00
43436;BME280;36399;51.444;-2.018;2022-07-31T02:37:25;100536.16;;;18.04;100.00
43436;BME280;36399;51.444;-2.018;2022-07-31T02:39:53;100542.28;;;18.09;100.00
43436;BME280;36399;51.444;-2.018;2022-07-31T02:42:20;100536.03;;;18.12;100.00
43436;BME280;36399;51.444;-2.018;2022-07-31T02:44:47;100539.72;;;18.03;100.00
43436;BME280;36399;51.444;-2.018;2022-07-31T02:47:14;100534.34;;;18.06;100.00
43436;BME280;36399;51.444;-2.018;2022-07-31T02:49:41;100538.78;;;18.07;100.00
43436;BME280;36399;51.444;-2.018;2022-07-31T02:52:09;100533.53;;;18.03;100.00
43436;BME280;36399;51.444;-2.018;2022-07-31T02:54:38;100527.34;;;18.02;100.00
43436;BME280;36399;51.444;-2.018;2022-07-31T02:57:05;100529.09;;;18.03;100.00
43436;BME280;36399;51.444;-2.018;2022-07-31T02:59:36;100517.50;;;18.07;100.00
43436;BME280;36399;51.444;-2.018;2022-07-31T03:02:02;100517.53;;;18.06;100.00
43436;BME280;36399;51.444;-2.018;2022-07-31T03:04:28;100511.31;;;18.08;100.00
43436;BME280;36399;51.444;-2.018;2022-07-31T03:06:55;100506.88;;;18.07;100.00
43436;BME280;36399;51.444;-2.018;2022-07-31T03:09:21;100494.47;;;18.08;100.00
43436;BME280;36399;51.444;-2.018;2022-07-31T03:11:47;100503.22;;;18.14;100.00
43436;BME280;36399;51.444;-2.018;2022-07-31T03:14:13;100495.44;;;18.04;100.00
43436;BME280;36399;51.444;-2.018;2022-07-31T03:16:41;100508.75;;;18.02;100.00
43436;BME280;36399;51.444;-2.018;2022-07-31T03:19:08;100499.84;;;18.05;100.00
43436;BME280;36399;51.444;-2.018;2022-07-31T03:21:34;100493.66;;;18.04;100.00
43436;BME280;36399;51.444;-2.018;2022-07-31T03:24:03;100495.47;;;18.02;100.00
43436;BME280;36399;51.444;-2.018;2022-07-31T03:26:30;100492.75;;;18.05;100.00
43436;BME280;36399;51.444;-2.018;2022-07-31T03:28:58;100491.84;;;18.06;100.00
43436;BME280;36399;51.444;-2.018;2022-07-31T03:31:24;100498.09;;;18.04;100.00
43436;BME280;36399;51.444;-2.018;2022-07-31T03:33:50;100493.63;;;18.06;100.00
43436;BME280;36399;51.444;-2.018;2022-07-31T03:36:16;100474.16;;;18.05;100.00
43436;BME280;36399;51.444;-2.018;2022-07-31T03:38:42;100490.00;;;18.11;100.00
43436;BME280;36399;51.444;-2.018;2022-07-31T03:41:09;100481.22;;;18.06;100.00
43436;BME280;36399;51.444;-2.018;2022-07-31T03:43:36;100474.97;;;18.09;100.00
43436;BME280;36399;51.444;-2.018;2022-07-31T03:46:03;100481.28;;;18.03;100.00
43436;BME280;36399;51.444;-2.018;2022-07-31T03:48:31;100476.00;;;18.02;100.00
43436;BME280;36399;51.444;-2.018;2022-07-31T03:50:57;100484.78;;;18.05;100.00
43436;BME280;36399;51.444;-2.018;2022-07-31T03:53:23;100479.44;;;18.07;100.00
43436;BME280;36399;51.444;-2.018;2022-07-31T03:55:50;100472.34;;;18.07;100.00
43436;BME280;36399;51.444;-2.018;2022-07-31T03:58:17;100474.22;;;18.02;100.00
43436;BME280;36399;51.444;-2.018;2022-07-31T04:00:44;100475.13;;;18.01;100.00
43436;BME280;36399;51.444;-2.018;2022-07-31T04:03:12;100478.63;;;18.03;100.00
43436;BME280;36399;51.444;-2.018;2022-07-31T04:05:39;100470.84;;;17.92;100.00
43436;BME280;36399;51.444;-2.018;2022-07-31T04:08:06;100481.44;;;17.94;100.00
43436;BME280;36399;51.444;-2.018;2022-07-31T04:10:33;100469.88;;;17.96;100.00
43436;BME280;36399;51.444;-2.018;2022-07-31T04:13:03;100476.88;;;18.02;100.00
43436;BME280;36399;51.444;-2.018;2022-07-31T04:15:29;100478.75;;;17.95;100.00
43436;BME280;36399;51.444;-2.018;2022-07-31T04:17:56;100464.53;;;18.00;100.00
43436;BME280;36399;51.444;-2.018;2022-07-31T04:20:22;100477.13;;;17.87;100.00
43436;BME280;36399;51.444;-2.018;2022-07-31T04:22:48;100469.09;;;17.91;100.00
43436;BME280;36399;51.444;-2.018;2022-07-31T04:25:14;100480.69;;;17.86;100.00
43436;BME280;36399;51.444;-2.018;2022-07-31T04:27:41;100468.28;;;17.86;100.00
43436;BME280;36399;51.444;-2.018;2022-07-31T04:30:08;100483.41;;;17.83;100.00
43436;BME280;36399;51.444;-2.018;2022-07-31T04:32:37;100478.09;;;17.83;100.00
43436;BME280;36399;51.444;-2.018;2022-07-31T04:35:04;100473.66;;;17.83;100.00
43436;BME280;36399;51.444;-2.018;2022-07-31T04:37:33;100470.97;;;17.85;100.00
43436;BME280;36399;51.444;-2.018;2022-07-31T04:40:03;100474.53;;;17.84;100.00
43436;BME280;36399;51.444;-2.018;2022-07-31T04:42:29;100474.47;;;17.87;100.00
43436;BME280;36399;51.444;-2.018;2022-07-31T04:44:55;100479.75;;;17.90;100.00
43436;BME280;36399;51.444;-2.018;2022-07-31T04:47:21;100477.13;;;17.87;100.00
43436;BME280;36399;51.444;-2.018;2022-07-31T04:49:47;100483.31;;;17.87;100.00
43436;BME280;36399;51.444;-2.018;2022-07-31T04:52:13;100484.97;;;17.94;100.00
43436;BME280;36399;51.444;-2.018;2022-07-31T04:54:39;100490.41;;;17.87;100.00
43436;BME280;36399;51.444;-2.018;2022-07-31T04:57:05;100495.84;;;17.81;100.00
43436;BME280;36399;51.444;-2.018;2022-07-31T04:59:31;100488.69;;;17.84;100.00
43436;BME280;36399;51.444;-2.018;2022-07-31T05:01:57;100492.38;;;17.76;100.00
43436;BME280;36399;51.444;-2.018;2022-07-31T05:04:23;100490.69;;;17.72;100.00
43436;BME280;36399;51.444;-2.018;2022-07-31T05:06:50;100487.03;;;17.79;100.00
43436;BME280;36399;51.444;-2.018;2022-07-31T05:09:18;100485.97;;;17.87;100.00
43436;BME280;36399;51.444;-2.018;2022-07-31T05:11:49;100490.47;;;17.84;100.00
43436;BME280;36399;51.444;-2.018;2022-07-31T05:14:17;100486.09;;;17.81;100.00
43436;BME280;36399;51.444;-2.018;2022-07-31T05:16:44;100496.84;;;17.74;100.00
43436;BME280;36399;51.444;-2.018;2022-07-31T05:19:11;100489.13;;;17.54;100.00
43436;BME280;36399;51.444;-2.018;2022-07-31T05:21:37;100495.47;;;17.44;100.00
43436;BME280;36399;51.444;-2.018;2022-07-31T05:24:03;100496.56;;;17.29;100.00
43436;BME280;36399;51.444;-2.018;2022-07-31T05:26:32;100498.41;;;17.24;100.00
43436;BME280;36399;51.444;-2.018;2022-07-31T05:28:58;100497.59;;;17.20;100.00
43436;BME280;36399;51.444;-2.018;2022-07-31T05:31:25;100506.50;;;17.13;100.00
43436;BME280;36399;51.444;-2.018;2022-07-31T05:33:52;100494.19;;;17.08;100.00
43436;BME280;36399;51.444;-2.018;2022-07-31T05:36:19;100491.59;;;17.04;100.00
43436;BME280;36399;51.444;-2.018;2022-07-31T05:38:47;100487.13;;;17.08;100.00
43436;BME280;36399;51.444;-2.018;2022-07-31T05:41:13;100491.66;;;17.00;100.00
43436;BME280;36399;51.444;-2.018;2022-07-31T05:43:39;100489.09;;;16.92;100.00
43436;BME280;36399;51.444;-2.018;2022-07-31T05:46:05;100482.91;;;16.93;100.00
43436;BME280;36399;51.444;-2.018;2022-07-31T05:48:32;100474.09;;;16.91;100.00
43436;BME280;36399;51.444;-2.018;2022-07-31T05:50:58;100488.19;;;16.93;100.00
43436;BME280;36399;51.444;-2.018;2022-07-31T05:53:24;100473.22;;;16.91;100.00
43436;BME280;36399;51.444;-2.018;2022-07-31T05:55:51;100471.38;;;16.94;100.00
43436;BME280;36399;51.444;-2.018;2022-07-31T05:58:18;100472.25;;;16.96;100.00
43436;BME280;36399;51.444;-2.018;2022-07-31T06:00:47;100480.25;;;16.92;100.00
43436;BME280;36399;51.444;-2.018;2022-07-31T06:03:14;100463.41;;;16.97;100.00
43436;BME280;36399;51.444;-2.018;2022-07-31T06:05:44;100469.56;;;16.98;100.00
43436;BME280;36399;51.444;-2.018;2022-07-31T06:08:10;100461.59;;;16.99;100.00
43436;BME280;36399;51.444;-2.018;2022-07-31T06:10:37;100459.75;;;17.04;100.00
43436;BME280;36399;51.444;-2.018;2022-07-31T06:13:05;100469.44;;;17.09;100.00
43436;BME280;36399;51.444;-2.018;2022-07-31T06:15:31;100459.66;;;17.12;100.00
43436;BME280;36399;51.444;-2.018;2022-07-31T06:17:58;100461.31;;;17.21;100.00
43436;BME280;36399;51.444;-2.018;2022-07-31T06:20:26;100471.72;;;17.36;100.00
43436;BME280;36399;51.444;-2.018;2022-07-31T06:22:52;100468.94;;;17.44;100.00
43436;BME280;36399;51.444;-2.018;2022-07-31T06:25:18;100475.97;;;17.46;100.00
43436;BME280;36399;51.444;-2.018;2022-07-31T06:27:45;100478.59;;;17.48;100.00
43436;BME280;36399;51.444;-2.018;2022-07-31T06:30:12;100478.59;;;17.49;100.00
43436;BME280;36399;51.444;-2.018;2022-07-31T06:32:38;100477.59;;;17.55;100.00
43436;BME280;36399;51.444;-2.018;2022-07-31T06:35:05;100482.91;;;17.55;100.00
43436;BME280;36399;51.444;-2.018;2022-07-31T06:37:31;100479.38;;;17.54;100.00
43436;BME280;36399;51.444;-2.018;2022-07-31T06:39:57;100478.41;;;17.60;100.00
43436;BME280;36399;51.444;-2.018;2022-07-31T06:42:24;100475.66;;;17.69;100.00
43436;BME280;36399;51.444;-2.018;2022-07-31T06:44:51;100478.31;;;17.67;100.00
43436;BME280;36399;51.444;-2.018;2022-07-31T06:47:20;100472.72;;;17.87;100.00
43436;BME280;36399;51.444;-2.018;2022-07-31T06:49:47;100466.22;;;18.04;100.00
43436;BME280;36399;51.444;-2.018;2022-07-31T06:52:13;100457.03;;;18.23;100.00
43436;BME280;36399;51.444;-2.018;2022-07-31T06:54:39;100467.53;;;18.31;100.00
43436;BME280;36399;51.444;-2.018;2022-07-31T06:57:05;100471.63;;;18.47;100.00
43436;BME280;36399;51.444;-2.018;2022-07-31T06:59:31;100470.47;;;18.62;100.00
43436;BME280;36399;51.444;-2.018;2022-07-31T07:01:57;100467.72;;;18.66;100.00
43436;BME280;36399;51.444;-2.018;2022-07-31T07:04:23;100460.66;;;18.65;100.00
43436;BME280;36399;51.444;-2.018;2022-07-31T07:06:49;100464.94;;;18.74;100.00
43436;BME280;36399;51.444;-2.018;2022-07-31T07:09:15;100467.59;;;18.72;100.00
43436;BME280;36399;51.444;-2.018;2022-07-31T07:11:41;100456.97;;;18.72;100.00
43436;BME280;36399;51.444;-2.018;2022-07-31T07:14:07;100463.19;;;18.71;100.00
43436;BME280;36399;51.444;-2.018;2022-07-31T07:16:32;100475.59;;;18.72;100.00
43436;BME280;36399;51.444;-2.018;2022-07-31T07:18:58;100476.13;;;18.89;100.00
43436;BME280;36399;51.444;-2.018;2022-07-31T07:21:24;100477.03;;;18.88;100.00
43436;BME280;36399;51.444;-2.018;2022-07-31T07:23:51;100477.63;;;19.03;100.00
43436;BME280;36399;51.444;-2.018;2022-07-31T07:26:19;100474.19;;;18.98;100.00
43436;BME280;36399;51.444;-2.018;2022-07-31T07:28:45;100482.59;;;18.78;100.00
43436;BME280;36399;51.444;-2.018;2022-07-31T07:31:11;100484.28;;;18.82;100.00
43436;BME280;36399;51.444;-2.018;2022-07-31T07:33:37;100479.34;;;18.62;100.00
43436;BME280;36399;51.444;-2.018;2022-07-31T07:36:03;100481.94;;;18.65;100.00
43436;BME280;36399;51.444;-2.018;2022-07-31T07:38:29;100489.16;;;18.57;100.00
43436;BME280;36399;51.444;-2.018;2022-07-31T07:40:55;100491.88;;;18.54;100.00
43436;BME280;36399;51.444;-2.018;2022-07-31T07:43:21;100492.19;;;18.37;100.00
43436;BME280;36399;51.444;-2.018;2022-07-31T07:45:47;100489.34;;;18.48;100.00
43436;BME280;36399;51.444;-2.018;2022-07-31T07:48:13;100503.75;;;18.36;100.00
43436;BME280;36399;51.444;-2.018;2022-07-31T07:50:39;100500.31;;;18.29;100.00
43436;BME280;36399;51.444;-2.018;2022-07-31T07:53:05;100494.66;;;18.48;100.00
43436;BME280;36399;51.444;-2.018;2022-07-31T07:55:32;100502.53;;;18.52;100.00
43436;BME280;36399;51.444;-2.018;2022-07-31T07:57:58;100515.84;;;18.51;100.00
43436;BME280;36399;51.444;-2.018;2022-07-31T08:00:24;100506.19;;;18.47;100.00
43436;BME280;36399;51.444;-2.018;2022-07-31T08:02:50;100513.28;;;18.46;100.00
43436;BME280;36399;51.444;-2.018;2022-07-31T08:05:16;100515.63;;;18.65;100.00
43436;BME280;36399;51.444;-2.018;2022-07-31T08:07:46;100503.47;;;18.50;100.00
43436;BME280;36399;51.444;-2.018;2022-07-31T08:10:12;100518.44;;;18.55;100.00
43436;BME280;36399;51.444;-2.018;2022-07-31T08:12:44;100513.16;;;18.52;100.00
43436;BME280;36399;51.444;-2.018;2022-07-31T08:15:11;100518.66;;;18.43;100.00
43436;BME280;36399;51.444;-2.018;2022-07-31T08:17:37;100512.56;;;18.38;100.00
43436;BME280;36399;51.444;-2.018;2022-07-31T08:20:03;100523.44;;;18.24;100.00
43436;BME280;36399;51.444;-2.018;2022-07-31T08:22:30;100525.28;;;18.21;100.00
43436;BME280;36399;51.444;-2.018;2022-07-31T08:24:56;100529.56;;;18.28;100.00
43436;BME280;36399;51.444;-2.018;2022-07-31T08:27:22;100521.53;;;18.33;100.00
43436;BME280;36399;51.444;-2.018;2022-07-31T08:29:53;100519.88;;;18.25;100.00
43436;BME280;36399;51.444;-2.018;2022-07-31T08:32:20;100533.00;;;18.35;100.00
43436;BME280;36399;51.444;-2.018;2022-07-31T08:34:46;100526.91;;;18.29;100.00
43436;BME280;36399;51.444;-2.018;2022-07-31T08:37:12;100524.91;;;18.41;100.00
43436;BME280;36399;51.444;-2.018;2022-07-31T08:39:39;100531.94;;;18.45;100.00
43436;BME280;36399;51.444;-2.018;2022-07-31T08:42:06;100526.47;;;18.52;100.00
43436;BME280;36399;51.444;-2.018;2022-07-31T08:44:36;100529.91;;;18.57;100.00
43436;BME280;36399;51.444;-2.018;2022-07-31T08:47:09;100527.28;;;18.56;100.00
43436;BME280;36399;51.444;-2.018;2022-07-31T08:49:39;100525.59;;;18.52;100.00
43436;BME280;36399;51.444;-2.018;2022-07-31T08:52:08;100522.06;;;18.51;100.00
43436;BME280;36399;51.444;-2.018;2022-07-31T08:54:35;100532.94;;;18.38;100.00
43436;BME280;36399;51.444;-2.018;2022-07-31T08:57:03;100523.00;;;18.49;100.00
43436;BME280;36399;51.444;-2.018;2022-07-31T08:59:29;100528.22;;;18.53;100.00
43436;BME280;36399;51.444;-2.018;2022-07-31T09:01:55;100525.63;;;18.97;100.00
43436;BME280;36399;51.444;-2.018;2022-07-31T09:04:24;100521.09;;;19.43;100.00
43436;BME280;36399;51.444;-2.018;2022-07-31T09:06:50;100512.44;;;19.72;100.00
43436;BME280;36399;51.444;-2.018;2022-07-31T09:09:16;100501.53;;;20.18;100.00
43436;BME280;36399;51.444;-2.018;2022-07-31T09:11:48;100507.22;;;20.05;100.00
43436;BME280;36399;51.444;-2.018;2022-07-31T09:14:27;100508.94;;;20.07;100.00
43436;BME280;36399;51.444;-2.018;2022-07-31T09:16:54;100500.06;;;20.07;100.00
43436;BME280;36399;51.444;-2.018;2022-07-31T09:19:22;100491.72;;;19.87;100.00
43436;BME280;36399;51.444;-2.018;2022-07-31T09:21:51;100503.81;;;19.63;100.00
43436;BME280;36399;51.444;-2.018;2022-07-31T09:24:26;100498.59;;;19.95;100.00
43436;BME280;36399;51.444;-2.018;2022-07-31T09:27:04;100498.22;;;20.44;100.00
43436;BME280;36399;51.444;-2.018;2022-07-31T09:29:40;100481.59;;;20.67;100.00
43436;BME280;36399;51.444;-2.018;2022-07-31T09:32:17;100494.25;;;20.92;100.00
43436;BME280;36399;51.444;-2.018;2022-07-31T09:34:44;100492.50;;;20.91;100.00
43436;BME280;36399;51.444;-2.018;2022-07-31T09:37:13;100493.69;;;21.69;100.00
43436;BME280;36399;51.444;-2.018;2022-07-31T09:39:41;100483.00;;;21.69;100.00
43436;BME280;36399;51.444;-2.018;2022-07-31T09:42:07;100496.19;;;22.01;100.00
43436;BME280;36399;51.444;-2.018;2022-07-31T09:44:38;100501.34;;;21.52;100.00
43436;BME280;36399;51.444;-2.018;2022-07-31T09:47:05;100496.59;;;21.89;100.00
43436;BME280;36399;51.444;-2.018;2022-07-31T09:49:34;100518.84;;;21.62;100.00
43436;BME280;36399;51.444;-2.018;2022-07-31T09:52:00;100501.88;;;21.91;100.00
43436;BME280;36399;51.444;-2.018;2022-07-31T09:54:28;100508.16;;;21.90;100.00
43436;BME280;36399;51.444;-2.018;2022-07-31T09:57:08;100511.44;;;21.70;100.00
43436;BME280;36399;51.444;-2.018;2022-07-31T09:59:34;100509.28;;;21.55;100.00
43436;BME280;36399;51.444;-2.018;2022-07-31T10:02:00;100503.69;;;21.62;100.00
43436;BME280;36399;51.444;-2.018;2022-07-31T10:04:26;100508.44;;;21.53;100.00
43436;BME280;36399;51.444;-2.018;2022-07-31T10:06:53;100500.16;;;21.32;100.00
43436;BME280;36399;51.444;-2.018;2022-07-31T10:09:21;100506.16;;;21.68;100.00
43436;BME280;36399;51.444;-2.018;2022-07-31T10:11:50;100510.28;;;21.51;100.00
43436;BME280;36399;51.444;-2.018;2022-07-31T10:14:31;100495.66;;;21.90;100.00
43436;BME280;36399;51.444;-2.018;2022-07-31T10:17:01;100506.59;;;22.11;100.00
43436;BME280;36399;51.444;-2.018;2022-07-31T10:19:31;100501.63;;;22.51;100.00
43436;BME280;36399;51.444;-2.018;2022-07-31T10:22:03;100495.94;;;22.60;100.00
43436;BME280;36399;51.444;-2.018;2022-07-31T10:24:35;100509.16;;;22.40;100.00
43436;BME280;36399;51.444;-2.018;2022-07-31T10:27:05;100507.31;;;22.16;100.00
43436;BME280;36399;51.444;-2.018;2022-07-31T10:29:35;100512.50;;;22.20;100.00
43436;BME280;36399;51.444;-2.018;2022-07-31T10:32:05;100507.34;;;22.14;100.00
43436;BME280;36399;51.444;-2.018;2022-07-31T10:34:32;100510.88;;;21.88;100.00
43436;BME280;36399;51.444;-2.018;2022-07-31T10:37:04;100503.97;;;21.81;100.00
43436;BME280;36399;51.444;-2.018;2022-07-31T10:39:42;100505.13;;;22.00;100.00
43436;BME280;36399;51.444;-2.018;2022-07-31T10:44:44;100525.00;;;22.20;100.00
43436;BME280;36399;51.444;-2.018;2022-07-31T10:47:17;100530.06;;;22.27;100.00
43436;BME280;36399;51.444;-2.018;2022-07-31T10:49:46;100514.06;;;21.99;100.00
43436;BME280;36399;51.444;-2.018;2022-07-31T10:52:36;100527.78;;;22.17;100.00
43436;BME280;36399;51.444;-2.018;2022-07-31T10:55:22;100518.84;;;21.90;100.00
43436;BME280;36399;51.444;-2.018;2022-07-31T10:57:52;100517.78;;;21.95;100.00
43436;BME280;36399;51.444;-2.018;2022-07-31T11:00:20;100516.41;;;21.82;100.00
43436;BME280;36399;51.444;-2.018;2022-07-31T11:02:47;100520.28;;;21.72;100.00
43436;BME280;36399;51.444;-2.018;2022-07-31T11:05:14;100508.31;;;21.84;100.00
43436;BME280;36399;51.444;-2.018;2022-07-31T11:07:44;100512.50;;;22.20;100.00
43436;BME280;36399;51.444;-2.018;2022-07-31T11:10:17;100514.88;;;22.01;100.00
43436;BME280;36399;51.444;-2.018;2022-07-31T11:13:07;100514.75;;;21.78;100.00
43436;BME280;36399;51.444;-2.018;2022-07-31T11:15:33;100512.31;;;21.98;100.00
43436;BME280;36399;51.444;-2.018;2022-07-31T11:18:28;100517.56;;;22.28;100.00
43436;BME280;36399;51.444;-2.018;2022-07-31T11:21:02;100508.72;;;22.52;100.00
43436;BME280;36399;51.444;-2.018;2022-07-31T11:23:30;100517.28;;;22.87;100.00
43436;BME280;36399;51.444;-2.018;2022-07-31T11:26:06;100520.06;;;23.09;100.00
43436;BME280;36399;51.444;-2.018;2022-07-31T11:28:33;100517.28;;;23.80;100.00
43436;BME280;36399;51.444;-2.018;2022-07-31T11:31:07;100518.97;;;24.05;100.00
43436;BME280;36399;51.444;-2.018;2022-07-31T11:33:39;100510.94;;;24.25;100.00
43436;BME280;36399;51.444;-2.018;2022-07-31T11:36:09;100512.34;;;24.13;100.00
43436;BME280;36399;51.444;-2.018;2022-07-31T11:38:37;100519.81;;;24.27;100.00
43436;BME280;36399;51.444;-2.018;2022-07-31T11:41:05;100522.66;;;24.22;100.00
43436;BME280;36399;51.444;-2.018;2022-07-31T11:43:31;100515.00;;;23.91;100.00
43436;BME280;36399;51.444;-2.018;2022-07-31T11:45:59;100514.31;;;24.30;100.00
43436;BME280;36399;51.444;-2.018;2022-07-31T11:48:26;100512.13;;;24.18;100.00
43436;BME280;36399;51.444;-2.018;2022-07-31T11:50:54;100528.06;;;24.01;100.00
43436;BME280;36399;51.444;-2.018;2022-07-31T11:53:20;100517.69;;;24.13;100.00
43436;BME280;36399;51.444;-2.018;2022-07-31T11:55:57;100524.66;;;24.39;100.00
43436;BME280;36399;51.444;-2.018;2022-07-31T11:58:28;100517.38;;;24.21;100.00
43436;BME280;36399;51.444;-2.018;2022-07-31T12:00:56;100520.06;;;24.21;100.00
43436;BME280;36399;51.444;-2.018;2022-07-31T12:03:25;100517.34;;;24.01;100.00
43436;BME280;36399;51.444;-2.018;2022-07-31T12:05:56;100522.59;;;24.04;100.00
43436;BME280;36399;51.444;-2.018;2022-07-31T12:08:23;100511.72;;;24.07;100.00
43436;BME280;36399;51.444;-2.018;2022-07-31T12:10:54;100510.44;;;24.37;100.00
43436;BME280;36399;51.444;-2.018;2022-07-31T12:13:21;100506.22;;;24.32;100.00
43436;BME280;36399;51.444;-2.018;2022-07-31T12:16:01;100510.22;;;24.42;100.00
43436;BME280;36399;51.444;-2.018;2022-07-31T12:18:30;100516.63;;;25.00;100.00
43436;BME280;36399;51.444;-2.018;2022-07-31T12:23:38;100525.81;;;25.71;100.00
43436;BME280;36399;51.444;-2.018;2022-07-31T12:26:04;100534.41;;;26.16;100.00
43436;BME280;36399;51.444;-2.018;2022-07-31T12:28:30;100543.25;;;26.71;100.00
43436;BME280;36399;51.444;-2.018;2022-07-31T12:30:58;100580.91;;;25.82;100.00
43436;BME280;36399;51.444;-2.018;2022-07-31T12:33:25;100559.31;;;25.64;100.00
43436;BME280;36399;51.444;-2.018;2022-07-31T12:35:53;100554.13;;;25.41;100.00
43436;BME280;36399;51.444;-2.018;2022-07-31T12:38:23;100534.81;;;25.33;100.00
43436;BME280;36399;51.444;-2.018;2022-07-31T12:40:49;100541.16;;;25.69;100.00
43436;BME280;36399;51.444;-2.018;2022-07-31T12:43:26;100556.47;;;25.86;100.00
43436;BME280;36399;51.444;-2.018;2022-07-31T12:45:52;100550.81;;;26.46;100.00
43436;BME280;36399;51.444;-2.018;2022-07-31T12:48:18;100581.03;;;26.69;100.00